Welkenraedt, Belgium
Current Conditions -  °F | °C
As of 4:33 PM on Thursday 27 Nov 2014 (Local Time) from EBLB Reporting Station
Broken Clouds Broken Clouds  
Wind Chill: 45°   Ceiling: 4900
Heat Index: 45°   Visibility: 5mi
Dew Point: 45°   Wind: 3mph
Humidity: 100%   Direction: 110°ESE
Pressure: 29.68"   Gusts: NA
Location:  50.66°N, 5.97°E
Report Text: EBLB 271533Z AUTO 11003KT 8000 SCT004/// BKN049/// 07/07 Q1005 YLO
Loading
Personal Weather Stations






























Interactive Weather Map New forecast layout! Learn more

10-Day Weather Forecast

Advertisements
Track Severe Weather on mobile